createdAt,value
2022-10-22T05:32:32.898Z,3.88
2022-10-22T05:34:59.434Z,4.97
2022-10-22T05:37:25.907Z,4.33
2022-10-22T05:40:19.074Z,4.45
2022-10-22T05:42:53.067Z,4.32
2022-10-22T05:45:19.586Z,4.50
2022-10-22T05:47:46.096Z,4.20
2022-10-22T05:50:12.643Z,4.35
2022-10-22T05:52:42.195Z,4.10
2022-10-22T05:55:09.047Z,4.20
2022-10-22T05:57:35.568Z,4.15
2022-10-22T06:00:02.067Z,4.45
2022-10-22T06:02:28.625Z,4.53
2022-10-22T06:04:55.185Z,4.50
2022-10-22T06:07:26.032Z,4.10
2022-10-22T06:09:53.833Z,3.90
2022-10-22T06:12:20.360Z,3.78
2022-10-22T06:14:46.880Z,3.65
2022-10-22T06:17:13.479Z,3.73
2022-10-22T06:19:39.988Z,4.18
2022-10-22T06:22:06.695Z,3.95
2022-10-22T06:24:33.350Z,3.90
2022-10-22T06:26:59.904Z,4.07
2022-10-22T06:29:26.454Z,3.77
2022-10-22T06:31:52.982Z,3.47
2022-10-22T06:34:19.648Z,3.53
2022-10-22T06:36:46.887Z,3.70
2022-10-22T06:39:15.238Z,3.07
2022-10-22T06:41:41.977Z,3.42
2022-10-22T06:44:14.700Z,3.38
2022-10-22T06:46:43.399Z,3.15
2022-10-22T06:49:14.220Z,3.22
2022-10-22T06:51:41.055Z,2.83
2022-10-22T06:54:07.829Z,3.22
2022-10-22T06:56:34.631Z,3.03
2022-10-22T06:59:01.199Z,3.20
2022-10-22T07:01:33.376Z,2.95
2022-10-22T07:04:00.367Z,2.70
2022-10-22T07:06:28.419Z,2.88
2022-10-22T07:08:56.819Z,2.70
2022-10-22T07:11:28.930Z,2.50
2022-10-22T07:13:57.090Z,3.03
2022-10-22T07:16:28.026Z,2.63
2022-10-22T07:18:59.000Z,2.63
2022-10-22T07:21:26.198Z,2.80
2022-10-22T07:23:53.010Z,2.80
2022-10-22T07:26:25.153Z,2.83
2022-10-22T07:28:52.130Z,2.60
2022-10-22T07:31:18.912Z,2.83
2022-10-22T07:33:45.564Z,2.50
2022-10-22T07:36:23.294Z,2.42
2022-10-22T07:38:57.670Z,2.47
2022-10-22T07:41:24.391Z,2.27
2022-10-22T07:43:51.074Z,2.47
2022-10-22T07:46:17.602Z,2.40
2022-10-22T07:48:44.145Z,2.08
2022-10-22T07:51:10.768Z,1.95
2022-10-22T07:53:38.037Z,1.97
2022-10-22T07:56:04.736Z,2.28
2022-10-22T07:58:31.716Z,2.08
2022-10-22T08:01:00.939Z,2.22
2022-10-22T08:03:28.344Z,2.22
2022-10-22T08:05:55.938Z,2.50
2022-10-22T08:08:25.841Z,2.42
2022-10-22T08:10:58.549Z,2.40
2022-10-22T08:13:26.332Z,2.00
2022-10-22T08:15:56.552Z,1.88
2022-10-22T08:18:24.525Z,2.27
2022-10-22T08:20:51.596Z,2.05
2022-10-22T08:23:18.222Z,2.13
2022-10-22T08:25:44.819Z,2.00
2022-10-22T08:28:11.245Z,1.60
2022-10-22T08:30:38.688Z,2.10
2022-10-22T08:33:06.165Z,2.10
2022-10-22T08:35:32.793Z,2.13
2022-10-22T08:37:59.270Z,2.42
2022-10-22T08:40:31.990Z,1.75
2022-10-22T08:43:23.526Z,2.00
2022-10-22T08:46:01.881Z,1.80
2022-10-22T08:48:48.435Z,2.63
2022-10-22T08:51:21.411Z,2.13
2022-10-22T08:53:53.555Z,2.20
2022-10-22T08:56:22.520Z,1.60
2022-10-22T08:59:10.789Z,2.55
2022-10-22T09:01:42.010Z,1.80
2022-10-22T09:04:25.683Z,1.73
2022-10-22T09:06:57.543Z,2.05
2022-10-22T09:09:33.147Z,1.73
2022-10-22T09:12:01.350Z,1.73
2022-10-22T09:14:29.918Z,1.70
2022-10-22T09:17:12.076Z,2.00
2022-10-22T09:20:01.682Z,1.90
2022-10-22T09:22:42.578Z,2.07
2022-10-22T09:25:27.903Z,2.38
2022-10-22T09:27:58.513Z,2.30
2022-10-22T09:30:30.502Z,2.05
2022-10-22T09:33:06.383Z,2.10
2022-10-22T09:35:48.740Z,2.77
2022-10-22T09:38:18.584Z,2.10
2022-10-22T09:40:48.748Z,2.35
2022-10-22T09:43:15.983Z,2.40
2022-10-22T09:45:43.458Z,2.47
2022-10-22T09:48:26.461Z,2.23
2022-10-22T09:51:11.481Z,2.35
2022-10-22T09:53:42.181Z,2.17
2022-10-22T09:56:36.193Z,2.08
2022-10-22T09:59:03.457Z,2.53
2022-10-22T10:01:34.546Z,2.20
2022-10-22T10:04:09.646Z,2.15
2022-10-22T10:06:40.183Z,2.30
2022-10-22T10:09:16.671Z,2.05
2022-10-22T10:12:02.134Z,2.03
2022-10-22T10:14:53.676Z,1.87
2022-10-22T10:17:39.273Z,1.92
2022-10-22T10:20:34.395Z,2.00
2022-10-22T10:23:09.214Z,2.00
2022-10-22T10:25:41.940Z,1.98
2022-10-22T10:28:29.740Z,1.73
2022-10-22T10:31:08.096Z,1.77
2022-10-22T10:33:40.341Z,1.75
2022-10-22T10:36:30.149Z,2.40
2022-10-22T10:39:11.246Z,2.28
2022-10-22T10:41:46.587Z,1.83
2022-10-22T10:44:28.195Z,2.03
2022-10-22T10:47:21.639Z,1.85
2022-10-22T10:49:50.450Z,1.83
2022-10-22T10:52:45.181Z,2.20
2022-10-22T10:55:36.389Z,1.80
2022-10-22T10:58:26.301Z,1.92
2022-10-22T11:00:59.822Z,2.10
2022-10-22T11:03:55.553Z,2.05
2022-10-22T11:06:25.575Z,2.50
2022-10-22T11:08:59.430Z,2.60
2022-10-22T11:11:41.267Z,2.13
2022-10-22T11:14:19.667Z,2.20
2022-10-22T11:16:55.353Z,3.05
2022-10-22T11:19:50.644Z,2.50
2022-10-22T11:22:28.517Z,2.80
2022-10-22T11:25:05.766Z,2.53
2022-10-22T11:27:32.250Z,2.63
2022-10-22T11:30:04.984Z,2.40
2022-10-22T11:32:32.617Z,2.85
2022-10-22T11:35:05.468Z,2.15
2022-10-22T11:37:35.253Z,3.00
2022-10-22T11:40:19.209Z,3.23
2022-10-22T11:43:10.203Z,2.67
2022-10-22T11:45:42.259Z,2.90
2022-10-22T11:48:11.758Z,3.20
2022-10-22T11:50:41.295Z,3.00
2022-10-22T11:53:13.734Z,3.00
2022-10-22T11:55:45.610Z,2.67
2022-10-22T11:58:38.301Z,2.70
2022-10-22T12:01:07.587Z,2.90
2022-10-22T12:03:34.696Z,3.10
2022-10-22T12:06:20.737Z,3.10
2022-10-22T12:08:57.090Z,2.97
2022-10-22T12:11:26.502Z,3.25
2022-10-22T12:13:58.752Z,3.20
2022-10-22T12:16:37.871Z,3.08
2022-10-22T12:19:16.263Z,3.20
2022-10-22T12:21:49.050Z,2.80
2022-10-22T12:24:19.129Z,3.17
2022-10-22T12:26:46.986Z,2.88
2022-10-22T12:29:16.246Z,2.60
2022-10-22T12:31:46.067Z,2.70
2022-10-22T12:34:22.030Z,3.47
2022-10-22T12:36:51.591Z,2.70
2022-10-22T12:39:21.112Z,2.60
2022-10-22T12:41:47.654Z,2.55
2022-10-22T12:44:16.747Z,3.00
2022-10-22T12:46:45.396Z,2.42
2022-10-22T12:49:20.097Z,2.83
2022-10-22T12:51:47.569Z,2.55
2022-10-22T12:54:34.555Z,2.90
2022-10-22T12:57:02.468Z,2.90
2022-10-22T12:59:33.527Z,2.20
2022-10-22T13:02:00.546Z,2.10
2022-10-22T13:04:28.290Z,2.63
2022-10-22T13:07:15.950Z,2.50
2022-10-22T13:09:58.240Z,2.77
2022-10-22T13:12:36.133Z,2.47
2022-10-22T13:15:30.206Z,2.90
2022-10-22T13:18:03.934Z,2.85
2022-10-22T13:20:30.802Z,2.70
2022-10-22T13:23:03.363Z,2.63
2022-10-22T13:25:35.433Z,2.40
2022-10-22T13:28:12.390Z,2.30
2022-10-22T13:30:40.047Z,2.67
2022-10-22T13:33:25.039Z,2.58
2022-10-22T13:35:52.019Z,3.00
2022-10-22T13:38:20.818Z,2.17
2022-10-22T13:40:47.985Z,2.20
2022-10-22T13:43:15.134Z,2.20
2022-10-22T13:45:42.120Z,2.75
2022-10-22T13:48:15.062Z,2.50
2022-10-22T13:50:42.311Z,2.47
2022-10-22T13:53:23.209Z,2.30
2022-10-22T13:55:50.333Z,2.65
2022-10-22T13:58:19.870Z,2.40
2022-10-22T14:00:49.922Z,2.50
2022-10-22T14:03:21.495Z,2.30
2022-10-22T14:05:48.832Z,2.28
2022-10-22T14:08:18.336Z,2.42
2022-10-22T14:10:45.161Z,2.45
2022-10-22T14:13:16.253Z,2.60
2022-10-22T14:15:45.071Z,4.28
2022-10-22T14:18:15.517Z,2.28
2022-10-22T14:20:42.791Z,2.63
2022-10-22T14:23:20.052Z,2.15
2022-10-22T14:25:46.931Z,2.67
2022-10-22T14:28:13.754Z,2.20
2022-10-22T14:30:41.048Z,2.20
2022-10-22T14:33:28.976Z,1.80
2022-10-22T14:36:04.702Z,2.28
2022-10-22T14:38:31.205Z,2.47
2022-10-22T14:40:59.609Z,2.13
2022-10-22T14:43:28.647Z,2.35
2022-10-22T14:45:55.475Z,1.90
2022-10-22T14:48:22.037Z,2.35
2022-10-22T14:50:48.900Z,5.10
2022-10-22T14:53:16.845Z,4.23
2022-10-22T14:55:44.665Z,4.20
2022-10-22T14:58:12.386Z,3.20
2022-10-22T15:00:41.893Z,3.03
2022-10-22T15:03:08.598Z,2.78
2022-10-22T15:05:36.576Z,3.37
2022-10-22T15:08:03.370Z,3.15
2022-10-22T15:10:29.929Z,2.90
2022-10-22T15:12:56.460Z,3.15
2022-10-22T15:15:23.820Z,2.65
2022-10-22T15:17:52.116Z,2.50
2022-10-22T15:20:18.672Z,2.60
2022-10-22T15:22:45.415Z,2.65
2022-10-22T15:25:13.763Z,2.53
2022-10-22T15:27:40.326Z,2.38
2022-10-22T15:30:08.161Z,2.60
2022-10-22T15:32:34.738Z,2.90
2022-10-22T15:35:01.672Z,2.90
2022-10-22T15:37:28.249Z,2.75
2022-10-22T15:39:54.797Z,2.55
2022-10-22T15:42:22.308Z,2.47
2022-10-22T15:44:48.793Z,2.53
2022-10-22T15:47:15.512Z,2.60
2022-10-22T15:49:42.039Z,2.70
2022-10-22T15:52:09.219Z,3.00
2022-10-22T15:54:35.920Z,3.13
2022-10-22T15:57:05.813Z,3.50
2022-10-22T15:59:32.381Z,3.03
2022-10-22T16:01:58.924Z,4.10
2022-10-22T16:04:25.433Z,3.22
2022-10-22T16:06:53.518Z,3.50
2022-10-22T16:09:24.940Z,3.00
2022-10-22T16:14:25.095Z,5.65
2022-10-22T16:16:54.266Z,9.68
2022-10-22T16:19:22.631Z,7.80
2022-10-22T16:21:51.593Z,4.97
2022-10-22T16:24:18.734Z,4.85
2022-10-22T16:26:45.652Z,5.05
2022-10-22T16:29:12.676Z,5.30
2022-10-22T16:31:40.418Z,6.60
2022-10-22T16:34:07.822Z,5.32
2022-10-22T16:36:36.216Z,6.07
2022-10-22T16:39:03.952Z,7.32
2022-10-22T16:41:35.162Z,6.40
2022-10-22T16:44:04.264Z,6.33
2022-10-22T16:46:31.856Z,6.05
